sensor_id;sensor_type;location;lat;lon;timestamp;P1;durP1;ratioP1;P2;durP2;ratioP2
8654;SDS011;13500;52.514;13.462;2022-12-07T00:01:45;14.97;;;9.60;;
8654;SDS011;13500;52.514;13.462;2022-12-07T00:04:15;13.20;;;9.17;;
8654;SDS011;13500;52.514;13.462;2022-12-07T00:06:46;13.93;;;9.57;;
8654;SDS011;13500;52.514;13.462;2022-12-07T00:09:18;14.73;;;9.40;;
8654;SDS011;13500;52.514;13.462;2022-12-07T00:11:50;13.33;;;8.93;;
8654;SDS011;13500;52.514;13.462;2022-12-07T00:14:18;13.97;;;9.77;;
8654;SDS011;13500;52.514;13.462;2022-12-07T00:16:48;12.13;;;9.27;;
8654;SDS011;13500;52.514;13.462;2022-12-07T00:19:18;11.87;;;8.97;;
8654;SDS011;13500;52.514;13.462;2022-12-07T00:21:47;12.30;;;9.23;;
8654;SDS011;13500;52.514;13.462;2022-12-07T00:24:16;10.37;;;8.37;;
8654;SDS011;13500;52.514;13.462;2022-12-07T00:26:45;12.30;;;8.90;;
8654;SDS011;13500;52.514;13.462;2022-12-07T00:29:15;11.13;;;8.67;;
8654;SDS011;13500;52.514;13.462;2022-12-07T00:31:44;10.47;;;8.10;;
8654;SDS011;13500;52.514;13.462;2022-12-07T00:34:13;10.60;;;8.07;;
8654;SDS011;13500;52.514;13.462;2022-12-07T00:36:42;10.47;;;8.37;;
8654;SDS011;13500;52.514;13.462;2022-12-07T00:39:11;10.17;;;7.70;;
8654;SDS011;13500;52.514;13.462;2022-12-07T00:41:39;10.20;;;7.30;;
8654;SDS011;13500;52.514;13.462;2022-12-07T00:44:08;10.13;;;7.93;;
8654;SDS011;13500;52.514;13.462;2022-12-07T00:46:37;9.53;;;7.97;;
8654;SDS011;13500;52.514;13.462;2022-12-07T00:49:05;11.00;;;8.00;;
8654;SDS011;13500;52.514;13.462;2022-12-07T00:51:34;9.20;;;7.40;;
8654;SDS011;13500;52.514;13.462;2022-12-07T00:54:05;8.70;;;7.00;;
8654;SDS011;13500;52.514;13.462;2022-12-07T00:56:35;9.73;;;8.10;;
8654;SDS011;13500;52.514;13.462;2022-12-07T00:59:04;9.00;;;6.63;;
8654;SDS011;13500;52.514;13.462;2022-12-07T01:01:33;8.20;;;7.27;;
8654;SDS011;13500;52.514;13.462;2022-12-07T01:04:06;9.57;;;8.00;;
8654;SDS011;13500;52.514;13.462;2022-12-07T01:06:34;9.03;;;7.40;;
8654;SDS011;13500;52.514;13.462;2022-12-07T01:09:03;10.40;;;8.43;;
8654;SDS011;13500;52.514;13.462;2022-12-07T01:11:32;9.93;;;8.03;;
8654;SDS011;13500;52.514;13.462;2022-12-07T01:14:02;8.53;;;7.47;;
8654;SDS011;13500;52.514;13.462;2022-12-07T01:16:31;11.70;;;8.33;;
8654;SDS011;13500;52.514;13.462;2022-12-07T01:19:00;9.53;;;7.93;;
8654;SDS011;13500;52.514;13.462;2022-12-07T01:21:31;11.20;;;7.70;;
8654;SDS011;13500;52.514;13.462;2022-12-07T01:24:03;11.07;;;8.33;;
8654;SDS011;13500;52.514;13.462;2022-12-07T01:26:32;8.97;;;8.07;;
8654;SDS011;13500;52.514;13.462;2022-12-07T01:29:03;8.80;;;7.90;;
8654;SDS011;13500;52.514;13.462;2022-12-07T01:31:32;8.47;;;7.57;;
8654;SDS011;13500;52.514;13.462;2022-12-07T01:34:00;9.33;;;7.80;;
8654;SDS011;13500;52.514;13.462;2022-12-07T01:36:30;10.93;;;7.33;;
8654;SDS011;13500;52.514;13.462;2022-12-07T01:39:00;8.93;;;7.50;;
8654;SDS011;13500;52.514;13.462;2022-12-07T01:41:35;9.60;;;7.30;;
8654;SDS011;13500;52.514;13.462;2022-12-07T01:44:14;8.37;;;6.47;;
8654;SDS011;13500;52.514;13.462;2022-12-07T01:46:47;7.30;;;6.60;;
8654;SDS011;13500;52.514;13.462;2022-12-07T01:49:20;7.33;;;6.43;;
8654;SDS011;13500;52.514;13.462;2022-12-07T01:51:51;7.07;;;5.87;;
8654;SDS011;13500;52.514;13.462;2022-12-07T01:54:25;6.97;;;6.13;;
8654;SDS011;13500;52.514;13.462;2022-12-07T01:56:54;6.67;;;5.57;;
8654;SDS011;13500;52.514;13.462;2022-12-07T01:59:25;8.03;;;5.57;;
8654;SDS011;13500;52.514;13.462;2022-12-07T02:01:53;6.97;;;5.93;;
8654;SDS011;13500;52.514;13.462;2022-12-07T02:04:23;7.63;;;5.17;;
8654;SDS011;13500;52.514;13.462;2022-12-07T02:06:52;7.97;;;5.47;;
8654;SDS011;13500;52.514;13.462;2022-12-07T02:09:23;6.60;;;5.57;;
8654;SDS011;13500;52.514;13.462;2022-12-07T02:11:51;7.67;;;6.00;;
8654;SDS011;13500;52.514;13.462;2022-12-07T02:14:19;7.17;;;5.57;;
8654;SDS011;13500;52.514;13.462;2022-12-07T02:16:57;6.00;;;5.37;;
8654;SDS011;13500;52.514;13.462;2022-12-07T02:19:52;6.00;;;5.33;;
8654;SDS011;13500;52.514;13.462;2022-12-07T02:25:55;6.00;;;4.53;;
8654;SDS011;13500;52.514;13.462;2022-12-07T02:28:33;5.53;;;4.90;;
8654;SDS011;13500;52.514;13.462;2022-12-07T02:31:04;6.60;;;4.80;;
8654;SDS011;13500;52.514;13.462;2022-12-07T02:33:36;5.80;;;4.93;;
8654;SDS011;13500;52.514;13.462;2022-12-07T02:36:10;6.20;;;5.47;;
8654;SDS011;13500;52.514;13.462;2022-12-07T02:38:43;8.33;;;5.83;;
8654;SDS011;13500;52.514;13.462;2022-12-07T02:41:17;6.63;;;5.50;;
8654;SDS011;13500;52.514;13.462;2022-12-07T02:43:51;6.33;;;5.47;;
8654;SDS011;13500;52.514;13.462;2022-12-07T02:46:22;7.20;;;5.80;;
8654;SDS011;13500;52.514;13.462;2022-12-07T02:48:54;7.00;;;6.07;;
8654;SDS011;13500;52.514;13.462;2022-12-07T02:51:27;8.77;;;6.27;;
8654;SDS011;13500;52.514;13.462;2022-12-07T02:53:57;8.00;;;6.40;;
8654;SDS011;13500;52.514;13.462;2022-12-07T02:56:27;7.90;;;6.20;;
8654;SDS011;13500;52.514;13.462;2022-12-07T02:59:02;8.87;;;5.97;;
8654;SDS011;13500;52.514;13.462;2022-12-07T03:01:41;9.30;;;6.53;;
8654;SDS011;13500;52.514;13.462;2022-12-07T03:04:24;8.47;;;7.07;;
8654;SDS011;13500;52.514;13.462;2022-12-07T03:07:00;8.13;;;6.70;;
8654;SDS011;13500;52.514;13.462;2022-12-07T03:09:33;9.47;;;6.73;;
8654;SDS011;13500;52.514;13.462;2022-12-07T03:12:09;7.30;;;6.07;;
8654;SDS011;13500;52.514;13.462;2022-12-07T03:14:43;7.83;;;6.47;;
8654;SDS011;13500;52.514;13.462;2022-12-07T03:17:17;7.97;;;6.67;;
8654;SDS011;13500;52.514;13.462;2022-12-07T03:19:49;7.90;;;6.40;;
8654;SDS011;13500;52.514;13.462;2022-12-07T03:22:21;9.37;;;6.57;;
8654;SDS011;13500;52.514;13.462;2022-12-07T03:24:52;11.60;;;7.83;;
8654;SDS011;13500;52.514;13.462;2022-12-07T03:27:24;9.10;;;7.23;;
8654;SDS011;13500;52.514;13.462;2022-12-07T03:29:54;8.83;;;7.37;;
8654;SDS011;13500;52.514;13.462;2022-12-07T03:32:31;9.17;;;7.63;;
8654;SDS011;13500;52.514;13.462;2022-12-07T03:35:03;9.13;;;7.40;;
8654;SDS011;13500;52.514;13.462;2022-12-07T03:37:34;8.37;;;7.17;;
8654;SDS011;13500;52.514;13.462;2022-12-07T03:40:10;9.97;;;8.03;;
8654;SDS011;13500;52.514;13.462;2022-12-07T03:42:40;9.50;;;7.77;;
8654;SDS011;13500;52.514;13.462;2022-12-07T03:45:09;9.70;;;7.73;;
8654;SDS011;13500;52.514;13.462;2022-12-07T03:47:42;8.97;;;7.63;;
8654;SDS011;13500;52.514;13.462;2022-12-07T03:50:13;8.63;;;7.20;;
8654;SDS011;13500;52.514;13.462;2022-12-07T03:52:47;9.80;;;7.13;;
8654;SDS011;13500;52.514;13.462;2022-12-07T03:55:18;9.47;;;7.57;;
8654;SDS011;13500;52.514;13.462;2022-12-07T03:57:49;8.93;;;7.23;;
8654;SDS011;13500;52.514;13.462;2022-12-07T04:00:21;10.30;;;8.27;;
8654;SDS011;13500;52.514;13.462;2022-12-07T04:02:52;12.50;;;8.07;;
8654;SDS011;13500;52.514;13.462;2022-12-07T04:05:21;11.37;;;8.27;;
8654;SDS011;13500;52.514;13.462;2022-12-07T04:07:52;11.07;;;8.03;;
8654;SDS011;13500;52.514;13.462;2022-12-07T04:10:20;13.37;;;8.73;;
8654;SDS011;13500;52.514;13.462;2022-12-07T04:12:48;13.50;;;9.03;;
8654;SDS011;13500;52.514;13.462;2022-12-07T04:15:17;15.97;;;9.87;;
8654;SDS011;13500;52.514;13.462;2022-12-07T04:17:48;14.20;;;9.43;;
8654;SDS011;13500;52.514;13.462;2022-12-07T04:20:18;20.07;;;10.03;;
8654;SDS011;13500;52.514;13.462;2022-12-07T04:22:48;15.37;;;9.97;;
8654;SDS011;13500;52.514;13.462;2022-12-07T04:25:18;14.63;;;10.37;;
8654;SDS011;13500;52.514;13.462;2022-12-07T04:27:46;16.50;;;11.07;;
8654;SDS011;13500;52.514;13.462;2022-12-07T04:30:14;16.63;;;11.07;;
8654;SDS011;13500;52.514;13.462;2022-12-07T04:32:42;18.00;;;11.27;;
8654;SDS011;13500;52.514;13.462;2022-12-07T04:35:12;18.27;;;11.87;;
8654;SDS011;13500;52.514;13.462;2022-12-07T04:37:44;18.53;;;11.87;;
8654;SDS011;13500;52.514;13.462;2022-12-07T04:40:15;17.57;;;12.17;;
8654;SDS011;13500;52.514;13.462;2022-12-07T04:42:46;18.03;;;12.50;;
8654;SDS011;13500;52.514;13.462;2022-12-07T04:45:14;18.60;;;13.07;;
8654;SDS011;13500;52.514;13.462;2022-12-07T04:47:43;21.17;;;12.73;;
8654;SDS011;13500;52.514;13.462;2022-12-07T04:50:12;20.37;;;13.70;;
8654;SDS011;13500;52.514;13.462;2022-12-07T04:52:42;23.70;;;15.43;;
8654;SDS011;13500;52.514;13.462;2022-12-07T04:55:10;23.67;;;14.33;;
8654;SDS011;13500;52.514;13.462;2022-12-07T04:57:38;25.43;;;15.37;;
8654;SDS011;13500;52.514;13.462;2022-12-07T05:00:10;26.13;;;16.30;;
8654;SDS011;13500;52.514;13.462;2022-12-07T05:02:41;30.13;;;16.57;;
8654;SDS011;13500;52.514;13.462;2022-12-07T05:05:09;26.53;;;16.73;;
8654;SDS011;13500;52.514;13.462;2022-12-07T05:07:37;33.93;;;17.30;;
8654;SDS011;13500;52.514;13.462;2022-12-07T05:10:09;28.73;;;16.60;;
8654;SDS011;13500;52.514;13.462;2022-12-07T05:12:42;26.30;;;16.50;;
8654;SDS011;13500;52.514;13.462;2022-12-07T05:15:13;25.73;;;15.60;;
8654;SDS011;13500;52.514;13.462;2022-12-07T05:17:43;31.27;;;17.47;;
8654;SDS011;13500;52.514;13.462;2022-12-07T05:20:12;29.33;;;16.77;;
8654;SDS011;13500;52.514;13.462;2022-12-07T05:22:41;32.70;;;17.20;;
8654;SDS011;13500;52.514;13.462;2022-12-07T05:25:13;33.23;;;18.20;;
8654;SDS011;13500;52.514;13.462;2022-12-07T05:27:43;32.10;;;17.43;;
8654;SDS011;13500;52.514;13.462;2022-12-07T05:30:14;34.40;;;17.60;;
8654;SDS011;13500;52.514;13.462;2022-12-07T05:32:43;33.03;;;18.53;;
8654;SDS011;13500;52.514;13.462;2022-12-07T05:35:11;32.90;;;19.57;;
8654;SDS011;13500;52.514;13.462;2022-12-07T05:37:40;33.20;;;19.07;;
8654;SDS011;13500;52.514;13.462;2022-12-07T05:40:09;35.70;;;20.63;;
8654;SDS011;13500;52.514;13.462;2022-12-07T05:42:39;35.47;;;18.93;;
8654;SDS011;13500;52.514;13.462;2022-12-07T05:45:07;37.60;;;20.87;;
8654;SDS011;13500;52.514;13.462;2022-12-07T05:47:37;34.53;;;19.47;;
8654;SDS011;13500;52.514;13.462;2022-12-07T05:50:06;40.77;;;21.30;;
8654;SDS011;13500;52.514;13.462;2022-12-07T05:52:35;36.90;;;19.10;;
8654;SDS011;13500;52.514;13.462;2022-12-07T05:55:03;36.43;;;19.90;;
8654;SDS011;13500;52.514;13.462;2022-12-07T05:57:34;39.00;;;21.97;;
8654;SDS011;13500;52.514;13.462;2022-12-07T06:00:06;43.83;;;20.80;;
8654;SDS011;13500;52.514;13.462;2022-12-07T06:02:37;38.20;;;21.23;;
8654;SDS011;13500;52.514;13.462;2022-12-07T06:05:07;36.77;;;20.13;;
8654;SDS011;13500;52.514;13.462;2022-12-07T06:07:39;41.73;;;22.43;;
8654;SDS011;13500;52.514;13.462;2022-12-07T06:10:08;43.67;;;21.33;;
8654;SDS011;13500;52.514;13.462;2022-12-07T06:12:38;43.17;;;22.27;;
8654;SDS011;13500;52.514;13.462;2022-12-07T06:15:07;47.83;;;22.27;;
8654;SDS011;13500;52.514;13.462;2022-12-07T06:17:36;47.20;;;23.37;;
8654;SDS011;13500;52.514;13.462;2022-12-07T06:20:07;42.07;;;21.60;;
8654;SDS011;13500;52.514;13.462;2022-12-07T06:22:36;45.73;;;22.07;;
8654;SDS011;13500;52.514;13.462;2022-12-07T06:25:05;40.87;;;22.57;;
8654;SDS011;13500;52.514;13.462;2022-12-07T06:27:34;41.50;;;21.50;;
8654;SDS011;13500;52.514;13.462;2022-12-07T06:30:04;40.83;;;20.73;;
8654;SDS011;13500;52.514;13.462;2022-12-07T06:32:37;39.07;;;18.37;;
8654;SDS011;13500;52.514;13.462;2022-12-07T06:35:05;36.00;;;20.07;;
8654;SDS011;13500;52.514;13.462;2022-12-07T06:37:36;34.53;;;17.87;;
8654;SDS011;13500;52.514;13.462;2022-12-07T06:40:05;34.40;;;18.90;;
8654;SDS011;13500;52.514;13.462;2022-12-07T06:42:35;29.67;;;16.03;;
8654;SDS011;13500;52.514;13.462;2022-12-07T06:45:03;36.00;;;20.30;;
8654;SDS011;13500;52.514;13.462;2022-12-07T06:47:33;41.00;;;20.90;;
8654;SDS011;13500;52.514;13.462;2022-12-07T06:50:14;38.50;;;19.20;;
8654;SDS011;13500;52.514;13.462;2022-12-07T06:52:42;32.97;;;18.17;;
8654;SDS011;13500;52.514;13.462;2022-12-07T06:55:13;42.33;;;20.73;;
8654;SDS011;13500;52.514;13.462;2022-12-07T06:57:41;37.20;;;19.30;;
8654;SDS011;13500;52.514;13.462;2022-12-07T07:00:10;35.60;;;20.43;;
8654;SDS011;13500;52.514;13.462;2022-12-07T07:02:47;34.13;;;19.47;;
8654;SDS011;13500;52.514;13.462;2022-12-07T07:05:16;39.10;;;20.27;;
8654;SDS011;13500;52.514;13.462;2022-12-07T07:07:47;39.70;;;22.20;;
8654;SDS011;13500;52.514;13.462;2022-12-07T07:10:36;38.27;;;21.20;;
8654;SDS011;13500;52.514;13.462;2022-12-07T07:13:07;41.93;;;22.27;;
8654;SDS011;13500;52.514;13.462;2022-12-07T07:15:37;45.30;;;22.07;;
8654;SDS011;13500;52.514;13.462;2022-12-07T07:18:07;39.50;;;22.37;;
8654;SDS011;13500;52.514;13.462;2022-12-07T07:20:38;49.00;;;26.53;;
8654;SDS011;13500;52.514;13.462;2022-12-07T07:23:06;56.93;;;27.50;;
8654;SDS011;13500;52.514;13.462;2022-12-07T07:25:37;39.50;;;20.87;;
8654;SDS011;13500;52.514;13.462;2022-12-07T07:28:09;38.03;;;18.93;;
8654;SDS011;13500;52.514;13.462;2022-12-07T07:30:38;40.47;;;23.13;;
8654;SDS011;13500;52.514;13.462;2022-12-07T07:33:06;37.60;;;21.17;;
8654;SDS011;13500;52.514;13.462;2022-12-07T07:35:34;35.53;;;19.73;;
8654;SDS011;13500;52.514;13.462;2022-12-07T07:38:04;39.10;;;20.90;;
8654;SDS011;13500;52.514;13.462;2022-12-07T07:40:34;35.23;;;20.07;;
8654;SDS011;13500;52.514;13.462;2022-12-07T07:43:06;30.63;;;18.27;;
8654;SDS011;13500;52.514;13.462;2022-12-07T07:45:34;29.37;;;18.30;;
8654;SDS011;13500;52.514;13.462;2022-12-07T07:48:03;33.60;;;19.17;;
8654;SDS011;13500;52.514;13.462;2022-12-07T07:50:33;31.00;;;18.40;;
8654;SDS011;13500;52.514;13.462;2022-12-07T07:53:08;29.73;;;18.10;;
8654;SDS011;13500;52.514;13.462;2022-12-07T07:55:37;32.03;;;17.80;;
8654;SDS011;13500;52.514;13.462;2022-12-07T07:58:05;28.57;;;17.97;;
8654;SDS011;13500;52.514;13.462;2022-12-07T08:00:34;23.10;;;13.83;;
8654;SDS011;13500;52.514;13.462;2022-12-07T08:03:03;21.90;;;13.90;;
8654;SDS011;13500;52.514;13.462;2022-12-07T08:05:34;20.83;;;13.27;;
8654;SDS011;13500;52.514;13.462;2022-12-07T08:08:08;19.83;;;13.07;;
8654;SDS011;13500;52.514;13.462;2022-12-07T08:10:37;22.97;;;13.30;;
8654;SDS011;13500;52.514;13.462;2022-12-07T08:13:09;21.23;;;13.07;;
8654;SDS011;13500;52.514;13.462;2022-12-07T08:15:40;19.23;;;12.40;;
8654;SDS011;13500;52.514;13.462;2022-12-07T08:18:10;22.03;;;13.13;;
8654;SDS011;13500;52.514;13.462;2022-12-07T08:20:39;19.23;;;11.77;;
8654;SDS011;13500;52.514;13.462;2022-12-07T08:23:09;20.97;;;11.80;;
8654;SDS011;13500;52.514;13.462;2022-12-07T08:25:41;14.40;;;9.60;;
8654;SDS011;13500;52.514;13.462;2022-12-07T08:28:10;15.57;;;10.63;;
8654;SDS011;13500;52.514;13.462;2022-12-07T08:30:38;13.33;;;11.00;;
8654;SDS011;13500;52.514;13.462;2022-12-07T08:33:06;14.37;;;10.27;;
8654;SDS011;13500;52.514;13.462;2022-12-07T08:35:34;15.63;;;9.37;;
8654;SDS011;13500;52.514;13.462;2022-12-07T08:38:02;14.07;;;9.27;;
8654;SDS011;13500;52.514;13.462;2022-12-07T08:40:32;14.33;;;9.50;;
8654;SDS011;13500;52.514;13.462;2022-12-07T08:43:01;14.63;;;9.60;;
8654;SDS011;13500;52.514;13.462;2022-12-07T08:45:30;14.60;;;8.30;;
8654;SDS011;13500;52.514;13.462;2022-12-07T08:48:02;10.47;;;7.67;;
8654;SDS011;13500;52.514;13.462;2022-12-07T08:50:32;13.77;;;10.13;;
8654;SDS011;13500;52.514;13.462;2022-12-07T08:53:01;8.33;;;6.13;;
8654;SDS011;13500;52.514;13.462;2022-12-07T08:55:32;6.70;;;5.97;;
8654;SDS011;13500;52.514;13.462;2022-12-07T08:58:01;7.67;;;4.93;;
8654;SDS011;13500;52.514;13.462;2022-12-07T09:00:31;7.37;;;5.00;;
8654;SDS011;13500;52.514;13.462;2022-12-07T09:02:59;8.53;;;5.17;;
8654;SDS011;13500;52.514;13.462;2022-12-07T09:05:30;6.90;;;4.57;;
8654;SDS011;13500;52.514;13.462;2022-12-07T09:07:59;6.93;;;5.23;;
8654;SDS011;13500;52.514;13.462;2022-12-07T11:09:36;23.33;;;14.87;;
8654;SDS011;13500;52.514;13.462;2022-12-07T11:12:47;7.97;;;6.10;;
8654;SDS011;13500;52.514;13.462;2022-12-07T11:15:28;8.33;;;3.50;;
8654;SDS011;13500;52.514;13.462;2022-12-07T11:18:03;8.10;;;3.97;;
8654;SDS011;13500;52.514;13.462;2022-12-07T11:20:36;5.33;;;3.30;;
8654;SDS011;13500;52.514;13.462;2022-12-07T11:23:12;4.50;;;3.27;;
8654;SDS011;13500;52.514;13.462;2022-12-07T11:25:52;4.20;;;2.87;;
8654;SDS011;13500;52.514;13.462;2022-12-07T11:28:27;5.67;;;3.87;;
8654;SDS011;13500;52.514;13.462;2022-12-07T11:31:08;4.87;;;4.10;;
8654;SDS011;13500;52.514;13.462;2022-12-07T11:33:41;11.03;;;5.20;;
8654;SDS011;13500;52.514;13.462;2022-12-07T11:36:17;5.63;;;4.27;;
8654;SDS011;13500;52.514;13.462;2022-12-07T11:39:00;9.67;;;6.03;;
8654;SDS011;13500;52.514;13.462;2022-12-07T11:41:33;6.77;;;4.73;;
8654;SDS011;13500;52.514;13.462;2022-12-07T11:44:05;7.43;;;3.53;;
8654;SDS011;13500;52.514;13.462;2022-12-07T11:46:40;3.87;;;3.47;;
8654;SDS011;13500;52.514;13.462;2022-12-07T11:49:14;7.57;;;4.40;;
8654;SDS011;13500;52.514;13.462;2022-12-07T11:51:51;7.27;;;4.80;;
8654;SDS011;13500;52.514;13.462;2022-12-07T11:54:21;6.13;;;3.70;;
8654;SDS011;13500;52.514;13.462;2022-12-07T11:56:54;8.67;;;4.30;;
8654;SDS011;13500;52.514;13.462;2022-12-07T11:59:25;6.40;;;4.20;;
8654;SDS011;13500;52.514;13.462;2022-12-07T12:01:58;9.03;;;4.10;;
8654;SDS011;13500;52.514;13.462;2022-12-07T12:04:32;4.70;;;3.83;;
8654;SDS011;13500;52.514;13.462;2022-12-07T12:07:13;5.20;;;3.67;;
8654;SDS011;13500;52.514;13.462;2022-12-07T12:10:05;5.30;;;3.80;;
8654;SDS011;13500;52.514;13.462;2022-12-07T12:16:21;6.10;;;4.00;;
8654;SDS011;13500;52.514;13.462;2022-12-07T12:19:10;7.80;;;4.13;;
8654;SDS011;13500;52.514;13.462;2022-12-07T12:21:49;5.50;;;3.70;;
8654;SDS011;13500;52.514;13.462;2022-12-07T12:24:31;7.10;;;4.00;;
8654;SDS011;13500;52.514;13.462;2022-12-07T12:27:03;7.27;;;3.80;;
8654;SDS011;13500;52.514;13.462;2022-12-07T12:29:38;6.40;;;3.70;;
8654;SDS011;13500;52.514;13.462;2022-12-07T12:32:13;4.50;;;2.90;;
8654;SDS011;13500;52.514;13.462;2022-12-07T12:34:58;7.43;;;3.40;;
8654;SDS011;13500;52.514;13.462;2022-12-07T12:37:49;5.50;;;3.83;;
8654;SDS011;13500;52.514;13.462;2022-12-07T12:49:39;12.00;;;7.13;;
8654;SDS011;13500;52.514;13.462;2022-12-07T12:55:24;6.90;;;3.03;;
8654;SDS011;13500;52.514;13.462;2022-12-07T12:58:40;7.63;;;3.10;;
8654;SDS011;13500;52.514;13.462;2022-12-07T13:13:30;8.13;;;2.90;;
8654;SDS011;13500;52.514;13.462;2022-12-07T13:25:29;5.93;;;2.97;;
8654;SDS011;13500;52.514;13.462;2022-12-07T13:28:01;8.93;;;3.53;;
8654;SDS011;13500;52.514;13.462;2022-12-07T13:30:33;7.13;;;2.70;;
8654;SDS011;13500;52.514;13.462;2022-12-07T13:33:13;6.10;;;3.40;;
8654;SDS011;13500;52.514;13.462;2022-12-07T13:35:44;8.40;;;4.00;;
8654;SDS011;13500;52.514;13.462;2022-12-07T13:38:18;9.13;;;3.33;;
8654;SDS011;13500;52.514;13.462;2022-12-07T13:41:10;9.27;;;3.10;;
8654;SDS011;13500;52.514;13.462;2022-12-07T13:43:46;5.97;;;3.20;;
8654;SDS011;13500;52.514;13.462;2022-12-07T13:46:17;5.63;;;2.70;;
8654;SDS011;13500;52.514;13.462;2022-12-07T13:48:55;5.20;;;2.50;;
8654;SDS011;13500;52.514;13.462;2022-12-07T13:51:33;11.63;;;2.70;;
8654;SDS011;13500;52.514;13.462;2022-12-07T13:54:09;6.43;;;2.80;;
8654;SDS011;13500;52.514;13.462;2022-12-07T13:56:47;5.57;;;2.63;;
8654;SDS011;13500;52.514;13.462;2022-12-07T13:59:16;8.33;;;3.50;;
8654;SDS011;13500;52.514;13.462;2022-12-07T14:01:46;6.27;;;2.80;;
8654;SDS011;13500;52.514;13.462;2022-12-07T14:04:31;9.50;;;3.67;;
8654;SDS011;13500;52.514;13.462;2022-12-07T14:07:21;3.43;;;2.50;;
8654;SDS011;13500;52.514;13.462;2022-12-07T14:09:54;5.90;;;3.03;;
8654;SDS011;13500;52.514;13.462;2022-12-07T14:12:27;5.37;;;3.80;;
8654;SDS011;13500;52.514;13.462;2022-12-07T14:14:57;9.37;;;4.23;;
8654;SDS011;13500;52.514;13.462;2022-12-07T14:17:30;7.20;;;4.40;;
8654;SDS011;13500;52.514;13.462;2022-12-07T14:20:03;9.27;;;4.17;;
8654;SDS011;13500;52.514;13.462;2022-12-07T14:22:54;9.70;;;4.30;;
8654;SDS011;13500;52.514;13.462;2022-12-07T14:25:28;6.90;;;3.10;;
8654;SDS011;13500;52.514;13.462;2022-12-07T14:28:01;9.53;;;3.47;;
8654;SDS011;13500;52.514;13.462;2022-12-07T14:30:47;4.40;;;2.50;;
8654;SDS011;13500;52.514;13.462;2022-12-07T14:33:15;7.47;;;3.20;;
8654;SDS011;13500;52.514;13.462;2022-12-07T14:35:46;4.47;;;2.50;;
8654;SDS011;13500;52.514;13.462;2022-12-07T14:38:16;7.67;;;2.70;;
8654;SDS011;13500;52.514;13.462;2022-12-07T14:40:45;5.33;;;2.80;;
8654;SDS011;13500;52.514;13.462;2022-12-07T14:43:16;8.37;;;3.10;;
8654;SDS011;13500;52.514;13.462;2022-12-07T14:45:47;9.27;;;3.10;;
8654;SDS011;13500;52.514;13.462;2022-12-07T14:48:18;6.13;;;2.60;;
8654;SDS011;13500;52.514;13.462;2022-12-07T14:51:07;11.77;;;3.00;;
8654;SDS011;13500;52.514;13.462;2022-12-07T14:53:57;8.47;;;2.63;;
8654;SDS011;13500;52.514;13.462;2022-12-07T14:56:25;6.63;;;2.50;;
8654;SDS011;13500;52.514;13.462;2022-12-07T14:58:55;7.83;;;3.30;;
8654;SDS011;13500;52.514;13.462;2022-12-07T15:01:26;8.87;;;2.73;;
8654;SDS011;13500;52.514;13.462;2022-12-07T15:03:55;6.80;;;2.63;;
8654;SDS011;13500;52.514;13.462;2022-12-07T15:06:24;7.53;;;2.90;;
8654;SDS011;13500;52.514;13.462;2022-12-07T15:08:52;5.00;;;2.30;;
8654;SDS011;13500;52.514;13.462;2022-12-07T15:11:21;5.37;;;2.67;;
8654;SDS011;13500;52.514;13.462;2022-12-07T15:13:49;7.17;;;2.67;;
8654;SDS011;13500;52.514;13.462;2022-12-07T15:16:40;6.77;;;2.87;;
8654;SDS011;13500;52.514;13.462;2022-12-07T15:19:29;7.67;;;2.77;;
8654;SDS011;13500;52.514;13.462;2022-12-07T15:21:59;6.77;;;2.90;;
8654;SDS011;13500;52.514;13.462;2022-12-07T15:24:28;9.23;;;2.73;;
8654;SDS011;13500;52.514;13.462;2022-12-07T15:26:57;9.53;;;3.30;;
8654;SDS011;13500;52.514;13.462;2022-12-07T15:29:25;7.53;;;3.17;;
8654;SDS011;13500;52.514;13.462;2022-12-07T15:31:59;6.67;;;2.77;;
8654;SDS011;13500;52.514;13.462;2022-12-07T15:34:28;6.40;;;3.00;;
8654;SDS011;13500;52.514;13.462;2022-12-07T15:37:06;9.27;;;3.00;;
8654;SDS011;13500;52.514;13.462;2022-12-07T15:39:35;10.13;;;3.00;;
8654;SDS011;13500;52.514;13.462;2022-12-07T15:42:05;5.13;;;3.07;;
8654;SDS011;13500;52.514;13.462;2022-12-07T15:44:34;8.97;;;3.50;;
8654;SDS011;13500;52.514;13.462;2022-12-07T15:47:22;7.77;;;3.33;;
8654;SDS011;13500;52.514;13.462;2022-12-07T15:49:54;6.23;;;3.30;;
8654;SDS011;13500;52.514;13.462;2022-12-07T15:52:24;8.37;;;3.20;;
8654;SDS011;13500;52.514;13.462;2022-12-07T15:54:54;8.17;;;4.13;;
8654;SDS011;13500;52.514;13.462;2022-12-07T15:57:26;6.67;;;3.23;;
8654;SDS011;13500;52.514;13.462;2022-12-07T15:59:58;10.77;;;3.40;;
8654;SDS011;13500;52.514;13.462;2022-12-07T16:02:30;7.33;;;2.33;;
8654;SDS011;13500;52.514;13.462;2022-12-07T16:05:07;5.60;;;2.53;;
8654;SDS011;13500;52.514;13.462;2022-12-07T16:07:37;8.93;;;3.20;;
8654;SDS011;13500;52.514;13.462;2022-12-07T16:10:09;5.57;;;3.03;;
8654;SDS011;13500;52.514;13.462;2022-12-07T16:12:41;10.27;;;3.00;;
8654;SDS011;13500;52.514;13.462;2022-12-07T16:15:10;7.40;;;2.97;;
8654;SDS011;13500;52.514;13.462;2022-12-07T16:17:39;7.03;;;2.70;;
8654;SDS011;13500;52.514;13.462;2022-12-07T16:20:10;6.00;;;2.63;;
8654;SDS011;13500;52.514;13.462;2022-12-07T16:22:40;5.87;;;2.60;;
8654;SDS011;13500;52.514;13.462;2022-12-07T16:25:17;6.47;;;2.33;;
8654;SDS011;13500;52.514;13.462;2022-12-07T16:27:48;7.03;;;2.43;;
8654;SDS011;13500;52.514;13.462;2022-12-07T16:30:19;7.83;;;2.30;;
8654;SDS011;13500;52.514;13.462;2022-12-07T16:32:56;6.20;;;2.90;;
8654;SDS011;13500;52.514;13.462;2022-12-07T16:35:28;14.37;;;7.93;;
8654;SDS011;13500;52.514;13.462;2022-12-07T16:37:56;5.87;;;2.50;;
8654;SDS011;13500;52.514;13.462;2022-12-07T16:40:24;6.60;;;2.60;;
8654;SDS011;13500;52.514;13.462;2022-12-07T16:42:52;6.90;;;2.57;;
8654;SDS011;13500;52.514;13.462;2022-12-07T16:45:22;9.30;;;2.87;;
8654;SDS011;13500;52.514;13.462;2022-12-07T16:47:50;6.60;;;2.40;;
8654;SDS011;13500;52.514;13.462;2022-12-07T16:50:26;5.97;;;2.80;;
8654;SDS011;13500;52.514;13.462;2022-12-07T16:52:55;11.30;;;2.90;;
8654;SDS011;13500;52.514;13.462;2022-12-07T16:55:25;4.63;;;2.63;;
8654;SDS011;13500;52.514;13.462;2022-12-07T16:57:53;11.97;;;2.87;;
8654;SDS011;13500;52.514;13.462;2022-12-07T17:00:23;8.77;;;2.80;;
8654;SDS011;13500;52.514;13.462;2022-12-07T17:02:52;8.80;;;2.90;;
8654;SDS011;13500;52.514;13.462;2022-12-07T17:05:24;8.63;;;2.83;;
8654;SDS011;13500;52.514;13.462;2022-12-07T17:08:00;6.50;;;2.80;;
8654;SDS011;13500;52.514;13.462;2022-12-07T17:10:33;7.37;;;2.63;;
8654;SDS011;13500;52.514;13.462;2022-12-07T17:13:03;6.73;;;2.33;;
8654;SDS011;13500;52.514;13.462;2022-12-07T17:15:56;8.57;;;2.90;;
8654;SDS011;13500;52.514;13.462;2022-12-07T17:18:26;5.77;;;2.63;;
8654;SDS011;13500;52.514;13.462;2022-12-07T17:21:00;8.53;;;3.17;;
8654;SDS011;13500;52.514;13.462;2022-12-07T17:23:31;8.23;;;4.33;;
8654;SDS011;13500;52.514;13.462;2022-12-07T17:26:06;6.33;;;3.10;;
8654;SDS011;13500;52.514;13.462;2022-12-07T17:28:35;6.30;;;3.00;;
8654;SDS011;13500;52.514;13.462;2022-12-07T17:31:05;6.03;;;2.93;;
8654;SDS011;13500;52.514;13.462;2022-12-07T17:33:35;9.40;;;2.90;;
8654;SDS011;13500;52.514;13.462;2022-12-07T17:36:10;10.40;;;3.30;;
8654;SDS011;13500;52.514;13.462;2022-12-07T17:38:39;6.63;;;3.00;;
8654;SDS011;13500;52.514;13.462;2022-12-07T17:41:08;6.97;;;3.00;;
8654;SDS011;13500;52.514;13.462;2022-12-07T17:43:38;7.80;;;2.73;;
8654;SDS011;13500;52.514;13.462;2022-12-07T17:46:07;8.97;;;3.10;;
8654;SDS011;13500;52.514;13.462;2022-12-07T17:48:40;7.03;;;2.80;;